Stotesbury, Missouri
Current Conditions -  °F | °C
As of 6:15 PM on Tuesday 25 Nov 2014 (Local Time) from KPTS Reporting Station
Clear Clear  
Wind Chill: 36°   Ceiling: Unl
Heat Index: 36°   Visibility: 10mi
Dew Point: 24°   Wind: 0mph
Humidity: 61%   Direction: NA
Pressure: 30.11"   Gusts: NA
Location:  38.0389°N, 94.5457°W
Report Text: KPTS 260015Z AUTO 00000KT 10SM CLR 02/M05 A3011 RMK AO2 T00221046
Loading
Personal Weather Stations






























Interactive Weather Map New forecast layout! Learn more

10-Day Weather Forecast

Advertisements
Track Severe Weather on mobile